createdAt,value
2022-09-03T00:00:15.051Z,1.80
2022-09-03T00:04:29.271Z,1.10
2022-09-03T00:08:39.036Z,1.30
2022-09-03T00:12:44.768Z,1.02
2022-09-03T00:17:00.716Z,1.20
2022-09-03T00:21:08.774Z,1.52
2022-09-03T00:25:29.142Z,1.10
2022-09-03T00:29:41.412Z,0.98
2022-09-03T00:33:46.809Z,1.20
2022-09-03T00:37:49.143Z,1.30
2022-09-03T00:46:07.433Z,1.02
2022-09-03T00:50:29.976Z,0.90
2022-09-03T00:54:40.577Z,0.93
2022-09-03T00:59:01.706Z,1.05
2022-09-03T01:03:11.119Z,1.05
2022-09-03T01:07:18.538Z,1.10
2022-09-03T01:11:51.561Z,0.88
2022-09-03T01:16:21.670Z,1.10
2022-09-03T01:20:35.179Z,1.20
2022-09-03T01:24:49.737Z,1.00
2022-09-03T01:29:13.053Z,1.00
2022-09-03T01:33:38.403Z,1.10
2022-09-03T01:37:54.169Z,1.10
2022-09-03T01:42:16.423Z,1.00
2022-09-03T01:46:29.515Z,1.20
2022-09-03T01:51:22.779Z,0.90
2022-09-03T01:55:30.083Z,1.23
2022-09-03T01:59:38.227Z,1.33
2022-09-03T02:03:44.727Z,1.35
2022-09-03T02:07:49.463Z,1.20
2022-09-03T02:11:59.580Z,1.45
2022-09-03T02:16:07.746Z,1.23
2022-09-03T02:20:12.054Z,1.10
2022-09-03T02:24:14.114Z,1.10
2022-09-03T02:28:17.735Z,1.10
2022-09-03T02:32:19.494Z,1.00
2022-09-03T02:36:27.739Z,1.63
2022-09-03T02:40:29.435Z,1.20
2022-09-03T02:44:35.662Z,1.20
2022-09-03T02:48:39.509Z,1.20
2022-09-03T02:52:41.139Z,1.10
2022-09-03T02:56:43.824Z,1.10
2022-09-03T03:00:45.472Z,1.02
2022-09-03T03:04:47.112Z,1.30
2022-09-03T03:08:50.236Z,1.20
2022-09-03T03:12:51.839Z,1.27
2022-09-03T03:16:53.465Z,1.13
2022-09-03T03:20:55.504Z,1.27
2022-09-03T03:24:57.809Z,1.10
2022-09-03T03:29:01.574Z,1.13
2022-09-03T03:33:03.840Z,1.30
2022-09-03T03:37:05.832Z,1.85
2022-09-03T03:41:13.165Z,1.10
2022-09-03T03:45:14.778Z,1.38
2022-09-03T03:49:16.335Z,1.20
2022-09-03T03:53:18.147Z,1.20
2022-09-03T03:57:20.958Z,1.25
2022-09-03T04:01:25.406Z,1.20
2022-09-03T04:05:27.046Z,1.10
2022-09-03T04:09:35.284Z,1.20
2022-09-03T04:13:39.585Z,1.50
2022-09-03T04:17:41.179Z,1.52
2022-09-03T04:21:43.071Z,1.00
2022-09-03T04:25:45.053Z,1.42
2022-09-03T04:29:50.254Z,1.38
2022-09-03T04:33:51.834Z,1.10
2022-09-03T04:37:55.216Z,1.30
2022-09-03T04:41:57.659Z,1.02
2022-09-03T04:46:04.411Z,1.20
2022-09-03T04:50:06.639Z,1.25
2022-09-03T04:54:09.985Z,1.17
2022-09-03T04:58:11.691Z,1.48
2022-09-03T05:02:15.119Z,1.30
2022-09-03T05:06:17.479Z,1.20
2022-09-03T05:10:22.616Z,1.58
2022-09-03T05:14:24.340Z,1.40
2022-09-03T05:18:25.996Z,1.23
2022-09-03T05:22:27.583Z,1.33
2022-09-03T05:26:31.528Z,1.33
2022-09-03T05:30:33.161Z,1.45
2022-09-03T05:34:34.774Z,1.45
2022-09-03T05:38:36.922Z,1.10
2022-09-03T05:42:39.130Z,1.57
2022-09-03T05:46:40.789Z,1.57
2022-09-03T05:50:42.354Z,1.42
2022-09-03T05:54:43.911Z,1.30
2022-09-03T05:58:48.196Z,1.42
2022-09-03T06:02:53.695Z,1.40
2022-09-03T06:06:56.265Z,1.40
2022-09-03T06:10:59.368Z,1.80
2022-09-03T06:15:01.016Z,1.63
2022-09-03T06:19:03.883Z,2.40
2022-09-03T06:27:08.598Z,2.42
2022-09-03T06:31:14.691Z,3.00
2022-09-03T06:35:16.695Z,2.60
2022-09-03T06:39:18.436Z,2.63
2022-09-03T06:43:20.281Z,3.15
2022-09-03T06:47:21.952Z,2.75
2022-09-03T06:51:27.159Z,3.13
2022-09-03T06:55:28.865Z,2.45
2022-09-03T06:59:30.444Z,2.50
2022-09-03T07:03:32.684Z,2.70
2022-09-03T07:07:34.465Z,2.97
2022-09-03T07:11:37.285Z,2.97
2022-09-03T07:15:40.266Z,2.95
2022-09-03T07:23:44.172Z,3.08
2022-09-03T07:27:47.365Z,2.90
2022-09-03T07:31:53.590Z,3.15
2022-09-03T07:35:55.291Z,2.80
2022-09-03T07:39:56.936Z,2.95
2022-09-03T07:43:59.765Z,3.33
2022-09-03T07:48:01.483Z,3.83
2022-09-03T07:52:03.299Z,4.03
2022-09-03T07:56:10.072Z,3.80
2022-09-03T08:00:13.513Z,3.72
2022-09-03T08:04:15.140Z,3.90
2022-09-03T08:08:17.951Z,3.70
2022-09-03T08:12:21.414Z,3.28
2022-09-03T08:16:23.243Z,3.00
2022-09-03T08:20:24.969Z,2.30
2022-09-03T08:24:26.742Z,2.75
2022-09-03T08:28:28.652Z,2.95
2022-09-03T08:32:30.504Z,2.70
2022-09-03T08:36:34.663Z,2.95
2022-09-03T08:40:38.240Z,2.92
2022-09-03T08:44:50.474Z,2.78
2022-09-03T08:48:53.114Z,2.83
2022-09-03T08:53:14.458Z,3.17
2022-09-03T08:57:19.330Z,3.05
2022-09-03T09:02:11.151Z,3.15
2022-09-03T09:06:56.072Z,2.83
2022-09-03T09:11:08.759Z,2.65
2022-09-03T09:15:13.685Z,2.90
2022-09-03T09:19:31.802Z,2.90
2022-09-03T09:23:43.582Z,2.78
2022-09-03T09:28:03.197Z,2.25
2022-09-03T09:32:09.120Z,2.97
2022-09-03T09:36:16.486Z,3.00
2022-09-03T09:40:33.945Z,2.83
2022-09-03T09:44:37.061Z,2.92
2022-09-03T09:48:48.476Z,3.30
2022-09-03T09:53:08.349Z,3.25
2022-09-03T09:57:26.152Z,2.90
2022-09-03T10:01:30.467Z,2.80
2022-09-03T10:05:37.873Z,2.65
2022-09-03T10:09:39.436Z,2.92
2022-09-03T10:13:45.745Z,3.40
2022-09-03T10:18:00.686Z,2.92
2022-09-03T10:22:10.167Z,2.80
2022-09-03T10:26:17.042Z,3.30
2022-09-03T10:30:18.848Z,2.67
2022-09-03T10:34:41.760Z,3.83
2022-09-03T10:43:18.639Z,2.50
2022-09-03T10:47:43.273Z,2.70
2022-09-03T10:51:59.594Z,3.00
2022-09-03T10:56:24.951Z,3.67
2022-09-03T11:00:30.874Z,2.80
2022-09-03T11:04:52.428Z,3.00
2022-09-03T11:09:06.485Z,3.10
2022-09-03T11:13:23.031Z,2.80
2022-09-03T11:17:32.317Z,3.20
2022-09-03T11:21:37.839Z,3.05
2022-09-03T11:25:49.107Z,3.35
2022-09-03T11:30:09.725Z,2.60
2022-09-03T11:34:31.962Z,2.70
2022-09-03T11:38:35.287Z,2.70
2022-09-03T11:46:46.194Z,2.78
2022-09-03T11:50:55.673Z,2.50
2022-09-03T11:55:00.574Z,2.38
2022-09-03T11:59:14.401Z,2.75
2022-09-03T12:03:18.852Z,2.38
2022-09-03T12:07:42.036Z,1.95
2022-09-03T12:12:09.361Z,2.63
2022-09-03T12:21:03.535Z,2.20
2022-09-03T12:25:16.954Z,2.03
2022-09-03T12:29:31.129Z,2.10
2022-09-03T12:33:41.863Z,2.47
2022-09-03T12:42:16.981Z,2.38
2022-09-03T12:46:18.876Z,2.60
2022-09-03T12:50:24.915Z,2.35
2022-09-03T12:54:27.726Z,2.60
2022-09-03T12:58:40.401Z,2.45
2022-09-03T13:03:08.082Z,2.70
2022-09-03T13:07:23.787Z,2.33
2022-09-03T13:11:26.188Z,2.75
2022-09-03T13:15:29.537Z,2.65
2022-09-03T13:19:37.065Z,2.50
2022-09-03T13:23:57.443Z,2.45
2022-09-03T13:28:23.442Z,3.03
2022-09-03T13:32:27.974Z,2.85
2022-09-03T13:36:49.269Z,2.33
2022-09-03T13:41:03.909Z,2.40
2022-09-03T13:45:31.602Z,2.08
2022-09-03T13:49:59.350Z,2.45
2022-09-03T13:54:13.477Z,1.85
2022-09-03T13:58:33.974Z,2.22
2022-09-03T14:03:16.233Z,2.20
2022-09-03T14:07:25.731Z,1.88
2022-09-03T14:11:35.193Z,1.70
2022-09-03T14:15:45.904Z,2.20
2022-09-03T14:20:01.248Z,1.90
2022-09-03T14:24:34.656Z,1.70
2022-09-03T14:28:40.819Z,2.00
2022-09-03T14:32:55.064Z,1.80
2022-09-03T14:37:14.812Z,1.70
2022-09-03T14:41:52.491Z,1.98
2022-09-03T14:46:28.154Z,1.80
2022-09-03T14:51:04.935Z,1.80
2022-09-03T14:55:35.941Z,1.85
2022-09-03T14:59:43.805Z,2.17
2022-09-03T15:04:20.236Z,2.10
2022-09-03T15:08:46.724Z,1.95
2022-09-03T15:13:10.282Z,1.83
2022-09-03T15:17:41.097Z,2.00
2022-09-03T15:21:55.427Z,1.85
2022-09-03T15:26:19.844Z,1.90
2022-09-03T15:30:21.630Z,1.95
2022-09-03T15:34:34.496Z,1.88
2022-09-03T15:38:51.391Z,1.70
2022-09-03T15:42:58.733Z,1.80
2022-09-03T15:47:05.342Z,1.85
2022-09-03T15:51:45.764Z,2.03
2022-09-03T15:55:48.299Z,1.83
2022-09-03T16:04:01.728Z,1.85
2022-09-03T16:08:19.988Z,2.17
2022-09-03T16:12:46.002Z,2.40
2022-09-03T16:17:28.905Z,2.22
2022-09-03T16:21:30.467Z,2.13
2022-09-03T16:25:38.652Z,1.88
2022-09-03T16:29:40.571Z,1.80
2022-09-03T16:34:18.944Z,2.20
2022-09-03T16:38:30.000Z,2.30
2022-09-03T16:42:44.948Z,2.38
2022-09-03T16:47:00.282Z,2.90
2022-09-03T16:51:29.257Z,2.58
2022-09-03T16:56:00.200Z,2.80
2022-09-03T17:00:21.031Z,1.83
2022-09-03T17:04:22.539Z,1.38
2022-09-03T17:08:32.609Z,1.30
2022-09-03T17:12:52.529Z,1.10
2022-09-03T17:17:16.406Z,0.85
2022-09-03T17:21:33.965Z,0.40
2022-09-03T17:26:06.528Z,0.60
2022-09-03T17:30:11.088Z,0.70
2022-09-03T17:34:54.846Z,1.00
2022-09-03T17:39:08.673Z,0.65
2022-09-03T17:43:42.304Z,0.90
2022-09-03T17:47:53.816Z,0.85
2022-09-03T17:52:14.150Z,0.70
2022-09-03T17:56:29.710Z,0.50
2022-09-03T18:00:38.176Z,0.98
2022-09-03T18:04:49.077Z,0.80
2022-09-03T18:09:17.033Z,0.80
2022-09-03T18:13:40.205Z,0.50
2022-09-03T18:17:51.611Z,0.88
2022-09-03T18:22:12.462Z,1.00
2022-09-03T18:26:44.492Z,0.60
2022-09-03T18:31:04.950Z,0.98
2022-09-03T18:35:27.237Z,0.77
2022-09-03T18:39:48.167Z,0.70
2022-09-03T18:44:57.859Z,0.60
2022-09-03T18:49:47.719Z,0.52
2022-09-03T18:54:14.314Z,0.60
2022-09-03T18:58:54.403Z,0.50
2022-09-03T19:03:48.219Z,0.90
2022-09-03T19:08:24.569Z,0.70
2022-09-03T19:12:59.027Z,0.75
2022-09-03T19:17:29.502Z,0.57
2022-09-03T19:22:04.473Z,0.50
2022-09-03T19:26:46.459Z,0.60
2022-09-03T19:31:24.020Z,0.50
2022-09-03T19:35:59.742Z,0.50
2022-09-03T19:40:59.019Z,0.57
2022-09-03T19:45:31.044Z,0.60
2022-09-03T19:50:18.633Z,0.85
2022-09-03T19:54:42.681Z,1.00
2022-09-03T19:59:16.748Z,1.00
2022-09-03T20:03:37.539Z,1.17
2022-09-03T20:07:58.315Z,1.38
2022-09-03T20:12:07.356Z,1.90
2022-09-03T20:16:32.903Z,1.83
2022-09-03T20:20:58.071Z,1.80
2022-09-03T20:25:16.179Z,2.40
2022-09-03T20:29:34.187Z,2.70
2022-09-03T20:33:49.452Z,3.00
2022-09-03T20:38:22.292Z,2.45
2022-09-03T20:42:43.939Z,3.15
2022-09-03T20:47:07.325Z,2.30
2022-09-03T20:51:22.854Z,2.90
2022-09-03T20:55:29.578Z,3.05
2022-09-03T20:59:53.244Z,3.13
2022-09-03T21:04:04.612Z,3.10
2022-09-03T21:08:25.318Z,3.67
2022-09-03T21:12:51.393Z,3.90
2022-09-03T21:17:06.049Z,3.95
2022-09-03T21:21:36.263Z,3.67
2022-09-03T21:25:44.997Z,3.42
2022-09-03T21:29:58.255Z,4.05
2022-09-03T21:34:09.765Z,3.50
2022-09-03T21:38:19.208Z,4.20
2022-09-03T21:42:36.618Z,3.78
2022-09-03T21:46:48.245Z,4.07
2022-09-03T21:51:00.140Z,4.57
2022-09-03T21:55:19.215Z,4.75
2022-09-03T21:59:29.923Z,4.00
2022-09-03T22:03:31.594Z,4.28
2022-09-03T22:08:30.716Z,4.07
2022-09-03T22:12:50.418Z,3.83
2022-09-03T22:17:02.875Z,3.88
2022-09-03T22:21:11.445Z,3.85
2022-09-03T22:25:21.416Z,3.97
2022-09-03T22:29:55.071Z,4.07
2022-09-03T22:34:21.177Z,3.60
2022-09-03T22:38:39.661Z,3.95
2022-09-03T22:43:13.850Z,3.70
2022-09-03T22:47:30.199Z,3.95
2022-09-03T22:52:14.102Z,3.65
2022-09-03T22:56:22.366Z,4.15
2022-09-03T23:00:24.147Z,4.15
2022-09-03T23:04:31.484Z,3.72
2022-09-03T23:08:49.929Z,4.00
2022-09-03T23:13:17.737Z,3.88
2022-09-03T23:21:41.522Z,3.35
2022-09-03T23:25:49.580Z,4.10
2022-09-03T23:29:54.948Z,3.85
2022-09-03T23:33:57.341Z,3.72
2022-09-03T23:38:23.177Z,3.33
2022-09-03T23:42:39.973Z,3.90
2022-09-03T23:47:07.655Z,4.50
2022-09-03T23:51:34.145Z,5.80
2022-09-03T23:56:05.240Z,5.47
